Terminal Aerodrome Forecast
Issued by NWS

Home | Current Version | Previous Version | Graphics & Text | Print | Product List | Glossary On
Versions: 1 2 3 4 5 6 7 8 9 10 11 12 13 14 15 16 17 18
000
FTUS43 KICT 271128
TAFRSL
TAF
KRSL 271128Z 2712/2812 09008KT P6SM OVC050
      TEMPO 2716/2720 5SM -SN OVC030
     FM272000 13012KT P6SM OVC030
     FM280600 16010KT P6SM OVC030=

USA.gov is the U.S. government's official web portal to all federal, state and local government web resources and services.